Time;durP1;ratioP1;P1;durP2;ratioP2;P2;SDS_P1;SDS_P2;PMS_P1;PMS_P2;Temp;Humidity;BMP_temperature;BMP_pressure;BME280_temperature;BME280_humidity;BME280_pressure;Samples;Min_cycle;Max_cycle;Signal;HPM_P1;HPM_P2
2022/07/20 00:00:08;;;;;;;95.23;44.50;;;;;;;20.21;50.62;97646.22;4802969;29;20699;-70
2022/07/20 00:02:38;;;;;;;93.97;45.80;;;;;;;20.22;50.63;97652.31;4802648;29;20201;-69
2022/07/20 00:05:06;;;;;;;88.53;41.70;;;;;;;20.09;51.15;97643.66;4803266;29;20207;-70
2022/07/20 00:07:33;;;;;;;92.67;47.00;;;;;;;20.08;51.03;97649.84;4802476;29;20602;-71
2022/07/20 00:12:45;;;;;;;145.80;69.13;;;;;;;19.30;53.31;97652.00;4802590;29;20614;-70
2022/07/20 00:15:13;;;;;;;146.00;75.93;;;;;;;19.25;53.60;97640.13;4802398;29;20210;-70
2022/07/20 00:17:39;;;;;;;171.70;79.10;;;;;;;19.27;53.05;97625.94;4801755;29;20250;-71
2022/07/20 00:20:07;;;;;;;202.03;95.97;;;;;;;19.33;53.27;97640.47;4800974;29;20600;-70
2022/07/20 00:22:34;;;;;;;469.80;250.87;;;;;;;19.09;53.61;97637.75;4800602;29;20286;-70
2022/07/20 00:25:01;;;;;;;463.33;245.13;;;;;;;18.93;53.98;97631.06;4800952;29;20209;-70
2022/07/20 00:27:28;;;;;;;330.40;158.30;;;;;;;18.94;53.64;97627.50;4801124;29;20260;-70
2022/07/20 00:29:56;;;;;;;283.07;133.13;;;;;;;18.92;53.92;97638.09;4801475;29;20601;-70
2022/07/20 00:32:22;;;;;;;270.87;123.00;;;;;;;18.62;54.42;97632.34;4800589;29;20209;-70
2022/07/20 00:34:49;;;;;;;205.13;98.23;;;;;;;18.71;54.16;97636.97;4801495;29;20590;-70
2022/07/20 00:37:16;;;;;;;397.43;196.20;;;;;;;18.53;54.80;97635.59;4800853;29;20242;-70
2022/07/20 00:39:43;;;;;;;402.83;188.67;;;;;;;18.35;54.85;97636.78;4801282;29;20210;-70
2022/07/20 00:42:10;;;;;;;357.07;167.67;;;;;;;18.12;55.83;97638.31;4801172;29;20210;-70
2022/07/20 00:44:37;;;;;;;350.97;160.87;;;;;;;17.79;56.40;97627.44;4800772;29;20208;-70
2022/07/20 00:47:04;;;;;;;272.33;119.33;;;;;;;17.87;56.46;97639.09;4800738;29;20240;-70
2022/07/20 00:49:31;;;;;;;253.87;110.13;;;;;;;17.96;56.09;97631.56;4800619;29;20285;-71
2022/07/20 00:51:58;;;;;;;202.97;92.23;;;;;;;17.92;56.38;97632.72;4801108;29;20275;-70
2022/07/20 00:54:25;;;;;;;254.73;114.67;;;;;;;17.77;56.80;97624.94;4800714;29;20193;-69
2022/07/20 00:56:52;;;;;;;218.27;93.40;;;;;;;17.64;57.40;97623.22;4801159;29;20273;-69
2022/07/20 00:59:19;;;;;;;190.37;80.77;;;;;;;17.74;57.33;97622.50;4800663;29;20274;-69
2022/07/20 01:01:46;;;;;;;153.30;67.40;;;;;;;17.79;57.04;97628.28;4800423;29;20227;-69
2022/07/20 01:04:13;;;;;;;140.27;58.07;;;;;;;17.54;57.90;97622.09;4800664;29;20214;-69
2022/07/20 01:06:40;;;;;;;161.43;66.43;;;;;;;17.42;58.31;97631.56;4800443;29;20338;-69
2022/07/20 01:09:08;;;;;;;110.50;50.23;;;;;;;17.37;58.55;97624.94;4800919;29;20211;-71
2022/07/20 01:11:35;;;;;;;126.60;54.10;;;;;;;17.34;58.65;97610.25;4800354;29;20216;-71
2022/07/20 01:14:04;;;;;;;97.07;43.07;;;;;;;17.41;58.42;97613.34;4800649;29;20586;-70
2022/07/20 01:16:32;;;;;;;91.13;45.83;;;;;;;17.30;59.13;97616.63;4761887;29;1169665;-70
2022/07/20 01:18:59;;;;;;;75.77;35.77;;;;;;;17.13;59.85;97621.22;4801191;29;20209;-70
2022/07/20 01:21:27;;;;;;;65.83;32.87;;;;;;;17.37;58.96;97617.09;4801136;29;20211;-70
2022/07/20 01:23:54;;;;;;;64.60;31.63;;;;;;;17.16;59.60;97619.28;4801395;29;20259;-69
2022/07/20 01:26:21;;;;;;;38.40;19.27;;;;;;;17.28;59.66;97615.03;4801233;29;20199;-69
2022/07/20 01:28:48;;;;;;;36.80;16.90;;;;;;;17.39;59.21;97618.69;4800792;29;20212;-71
2022/07/20 01:31:16;;;;;;;25.40;13.33;;;;;;;17.34;59.27;97607.63;4801277;29;20268;-69
2022/07/20 01:33:43;;;;;;;24.97;13.83;;;;;;;17.30;59.43;97616.63;4801057;29;20214;-70
2022/07/20 01:36:09;;;;;;;19.50;10.87;;;;;;;17.30;59.56;97614.00;4800827;29;20217;-70
2022/07/20 01:38:36;;;;;;;27.07;14.23;;;;;;;17.32;59.32;97616.53;4800900;29;20243;-70
2022/07/20 01:41:04;;;;;;;29.63;14.77;;;;;;;17.15;60.06;97616.72;4800593;29;20239;-70
2022/07/20 01:43:31;;;;;;;27.30;15.37;;;;;;;17.03;60.11;97602.66;4800852;29;20259;-71
2022/07/20 01:45:58;;;;;;;27.33;14.30;;;;;;;16.95;60.79;97618.00;4800890;29;20534;-71
2022/07/20 01:48:25;;;;;;;21.73;12.40;;;;;;;17.06;60.50;97611.13;4800943;29;20294;-71
2022/07/20 01:50:52;;;;;;;24.47;11.40;;;;;;;16.88;61.08;97611.44;4784546;29;20238;-70
2022/07/20 01:53:19;;;;;;;23.43;12.80;;;;;;;16.78;61.67;97610.34;4800820;29;20213;-70
2022/07/20 01:55:46;;;;;;;22.47;11.60;;;;;;;16.72;62.14;97605.47;4801016;29;20279;-70
2022/07/20 01:58:13;;;;;;;43.23;21.43;;;;;;;16.61;61.81;97603.50;4800872;29;20214;-71
2022/07/20 02:00:40;;;;;;;174.87;76.07;;;;;;;16.67;61.79;97605.75;4800938;29;20737;-69
2022/07/20 02:03:07;;;;;;;191.30;86.63;;;;;;;16.78;61.80;97610.34;4800325;29;20633;-70
2022/07/20 02:05:34;;;;;;;106.87;50.13;;;;;;;16.51;62.39;97599.78;4800712;29;20217;-70
2022/07/20 02:08:01;;;;;;;134.00;58.80;;;;;;;16.20;63.49;97603.34;4800243;29;20612;-70
2022/07/20 02:10:28;;;;;;;137.33;56.13;;;;;;;16.19;63.36;97604.28;4800061;29;20219;-70
2022/07/20 02:12:55;;;;;;;121.47;56.67;;;;;;;16.22;63.24;97604.09;4783866;29;20218;-70
2022/07/20 02:18:28;;;;;;;83.70;37.83;;;;;;;16.00;64.19;97593.22;4800439;29;20831;-70
2022/07/20 02:20:55;;;;;;;61.23;28.93;;;;;;;15.96;64.18;97599.56;4800032;29;20211;-70
2022/07/20 02:23:21;;;;;;;118.73;52.53;;;;;;;16.04;64.18;97604.34;4800388;29;20210;-69
2022/07/20 02:25:48;;;;;;;127.80;52.57;;;;;;;16.12;63.53;97602.97;4800014;29;20207;-68
2022/07/20 02:28:15;;;;;;;159.47;69.57;;;;;;;16.15;63.60;97596.72;4800091;29;20334;-68
2022/07/20 02:30:42;;;;;;;159.23;66.17;;;;;;;16.25;63.46;97597.84;4800216;29;20211;-70
2022/07/20 02:33:09;;;;;;;202.83;84.40;;;;;;;16.11;63.25;97592.59;4783659;29;20756;-70
2022/07/20 02:35:36;;;;;;;179.07;76.90;;;;;;;15.99;63.58;97582.88;4800109;29;20628;-68
2022/07/20 02:38:03;;;;;;;178.73;75.23;;;;;;;16.07;63.97;97599.75;4799904;29;20677;-68
2022/07/20 02:40:30;;;;;;;293.50;125.30;;;;;;;16.02;63.99;97590.53;4799865;29;20210;-68
2022/07/20 02:42:57;;;;;;;267.90;114.63;;;;;;;16.04;64.16;97592.13;4799840;29;20691;-68
2022/07/20 02:45:24;;;;;;;290.80;131.43;;;;;;;15.86;64.45;97589.75;4799557;29;20264;-68
2022/07/20 02:47:51;;;;;;;261.33;108.43;;;;;;;15.83;64.63;97600.34;4799603;29;20236;-68
2022/07/20 02:50:18;;;;;;;207.73;91.07;;;;;;;15.76;64.81;97599.03;4799522;29;20229;-69
2022/07/20 02:52:45;;;;;;;180.37;78.77;;;;;;;15.83;64.71;97603.81;4800300;29;20218;-69
2022/07/20 02:55:12;;;;;;;178.70;73.53;;;;;;;15.79;64.77;97604.91;4799778;29;20218;-69
2022/07/20 02:57:39;;;;;;;183.97;74.93;;;;;;;15.90;64.45;97609.53;4799835;29;20276;-70
2022/07/20 03:00:09;;;;;;;173.77;71.50;;;;;;;16.06;64.22;97605.94;4799818;29;20202;-70
2022/07/20 03:02:37;;;;;;;167.90;68.47;;;;;;;16.17;63.84;97607.94;4799842;29;20680;-71
2022/07/20 03:05:04;;;;;;;148.40;61.97;;;;;;;16.34;63.12;97612.16;4799968;29;20599;-70
2022/07/20 03:07:31;;;;;;;154.37;69.10;;;;;;;16.36;62.96;97610.28;4799957;29;20393;-69
2022/07/20 03:09:58;;;;;;;124.20;53.13;;;;;;;16.41;62.63;97610.84;4800037;29;20234;-70
2022/07/20 03:12:25;;;;;;;111.27;45.90;;;;;;;16.54;62.24;97603.97;4799774;29;20201;-69
2022/07/20 03:14:52;;;;;;;79.07;38.23;;;;;;;16.70;61.27;97609.97;4799552;29;20202;-70
2022/07/20 03:17:19;;;;;;;73.73;33.70;;;;;;;16.95;61.18;97610.13;4799132;29;20265;-70
2022/07/20 03:19:46;;;;;;;65.97;29.77;;;;;;;17.20;60.17;97605.06;4799709;29;20263;-70
2022/07/20 03:22:13;;;;;;;51.83;24.93;;;;;;;17.44;59.84;97603.50;4800058;29;20216;-70
2022/07/20 03:24:41;;;;;;;49.23;21.87;;;;;;;17.76;59.22;97604.88;4799537;29;20224;-70
2022/07/20 03:27:08;;;;;;;51.63;25.03;;;;;;;17.82;58.25;97604.50;4797208;29;20210;-70
2022/07/20 03:29:35;;;;;;;81.27;33.17;;;;;;;17.76;57.95;97591.78;4799754;29;20200;-71
2022/07/20 03:32:03;;;;;;;89.63;38.83;;;;;;;17.76;58.07;97599.66;4799032;29;20200;-70
2022/07/20 03:34:31;;;;;;;85.73;39.43;;;;;;;17.85;58.29;97616.56;4795835;29;20219;-71
2022/07/20 03:36:57;;;;;;;86.67;39.07;;;;;;;17.86;58.03;97610.38;4799375;29;20209;-70
2022/07/20 03:39:25;;;;;;;97.27;41.03;;;;;;;17.91;58.46;97597.00;4798996;29;20623;-71
2022/07/20 03:41:52;;;;;;;95.57;42.77;;;;;;;17.79;58.61;97609.09;4798994;29;20246;-70
2022/07/20 03:44:19;;;;;;;81.07;37.87;;;;;;;17.75;58.75;97607.63;4799203;29;20261;-71
2022/07/20 03:46:46;;;;;;;58.13;26.63;;;;;;;17.93;58.81;97611.66;4798094;29;20401;-71
2022/07/20 03:49:13;;;;;;;44.57;18.73;;;;;;;18.33;57.67;97612.47;4798506;29;20360;-70
2022/07/20 03:51:40;;;;;;;29.93;14.17;;;;;;;18.83;56.71;97602.00;4799100;29;20205;-71
2022/07/20 03:54:07;;;;;;;16.83;10.80;;;;;;;19.38;55.40;97606.84;4799539;29;20214;-70
2022/07/20 03:56:39;;;;;;;14.97;7.63;;;;;;;19.65;54.71;97612.72;4798601;29;20209;-69
2022/07/20 03:59:08;;;;;;;16.87;5.80;;;;;;;20.03;53.88;97604.66;4802175;29;20602;-72
2022/07/20 04:01:35;;;;;;;10.30;5.23;;;;;;;19.95;53.97;97602.56;4802973;29;20210;-71
2022/07/20 04:04:03;;;;;;;9.43;3.73;;;;;;;20.51;52.62;97606.22;4802054;29;20214;-71
2022/07/20 04:06:30;;;;;;;9.77;4.97;;;;;;;20.48;53.05;97606.47;4803230;29;20693;-71
2022/07/20 04:08:58;;;;;;;8.17;3.83;;;;;;;20.66;52.59;97598.94;4802253;29;20283;-69
2022/07/20 04:11:25;;;;;;;7.80;4.47;;;;;;;21.08;52.15;97610.59;4802144;29;20683;-69
2022/07/20 04:13:52;;;;;;;6.53;3.70;;;;;;;21.22;51.41;97613.00;4802610;29;20279;-69
2022/07/20 04:16:19;;;;;;;19.10;9.37;;;;;;;21.27;50.61;97616.09;4802096;29;20245;-69
2022/07/20 04:18:47;;;;;;;16.90;7.97;;;;;;;21.38;50.95;97608.16;4802262;29;20585;-71
2022/07/20 04:21:14;;;;;;;33.60;15.50;;;;;;;21.13;50.46;97618.97;4792362;29;20290;-68
2022/07/20 04:23:42;;;;;;;38.97;17.83;;;;;;;20.85;50.77;97612.38;4801994;29;20596;-68
2022/07/20 04:26:09;;;;;;;19.90;8.57;;;;;;;21.01;51.20;97615.47;4802065;29;20207;-69
2022/07/20 04:28:35;;;;;;;21.40;10.60;;;;;;;21.11;51.00;97618.25;4802052;29;20718;-71
2022/07/20 04:31:02;;;;;;;12.47;7.57;;;;;;;21.08;51.30;97610.59;4801375;29;20301;-71
2022/07/20 04:33:29;;;;;;;8.97;5.57;;;;;;;21.16;51.11;97618.75;4801491;29;20214;-71
2022/07/20 04:35:57;;;;;;;9.00;4.70;;;;;;;21.13;51.58;97608.44;4801821;29;20219;-69
2022/07/20 04:38:24;;;;;;;6.23;4.13;;;;;;;21.30;50.68;97608.78;4802192;29;20208;-70
2022/07/20 04:40:51;;;;;;;5.70;3.20;;;;;;;21.30;50.27;97616.69;4800703;29;20232;-69
2022/07/20 04:43:18;;;;;;;6.67;3.10;;;;;;;21.59;50.44;97601.19;4801293;29;20204;-69
2022/07/20 04:45:45;;;;;;;4.87;3.00;;;;;;;21.92;49.31;97618.72;4801969;29;20209;-69
2022/07/20 04:48:12;;;;;;;5.00;3.20;;;;;;;21.76;49.59;97619.09;4802347;29;20243;-70
2022/07/20 04:50:39;;;;;;;3.93;2.80;;;;;;;21.88;49.55;97628.69;4801545;29;20270;-70
2022/07/20 04:53:06;;;;;;;8.67;3.50;;;;;;;21.96;48.94;97620.13;4802108;29;20684;-70
2022/07/20 04:55:33;;;;;;;4.13;2.40;;;;;;;22.17;48.99;97629.78;4801863;29;20232;-71
2022/07/20 04:58:00;;;;;;;5.00;3.20;;;;;;;22.14;47.93;97576.41;4801607;29;20211;-70
2022/07/20 05:00:28;;;;;;;5.13;2.83;;;;;;;22.48;48.30;97617.50;4801468;29;20215;-70
2022/07/20 05:02:55;;;;;;;4.77;2.50;;;;;;;22.75;47.78;97611.69;4801517;29;20201;-70
2022/07/20 05:05:22;;;;;;;6.80;2.60;;;;;;;22.58;47.35;97613.13;4801863;29;20208;-70
2022/07/20 05:07:48;;;;;;;8.80;2.83;;;;;;;22.79;47.26;97615.75;4801059;29;20245;-70
2022/07/20 05:10:15;;;;;;;5.10;3.37;;;;;;;22.62;47.07;97615.38;4801092;29;20223;-68
2022/07/20 05:12:42;;;;;;;5.53;2.90;;;;;;;22.51;47.06;97612.78;4801388;29;20291;-69
2022/07/20 05:15:09;;;;;;;6.33;2.53;;;;;;;22.54;46.85;97594.06;4801396;29;20232;-70
2022/07/20 05:17:36;;;;;;;6.57;2.70;;;;;;;22.89;46.43;97603.41;4813539;29;20736;-71
2022/07/20 05:20:04;;;;;;;4.73;2.50;;;;;;;23.59;45.65;97613.97;4818882;29;20232;-69
2022/07/20 05:22:31;;;;;;;38.47;20.73;;;;;;;23.54;45.56;97621.47;4819142;29;20287;-70
2022/07/20 05:24:58;;;;;;;49.30;25.27;;;;;;;22.92;46.77;97627.75;4818973;29;20287;-70
2022/07/20 05:27:25;;;;;;;15.10;7.83;;;;;;;22.94;46.50;97617.91;4819730;29;20211;-69
2022/07/20 05:29:52;;;;;;;35.77;18.27;;;;;;;22.99;47.07;97617.50;4818838;29;20282;-70
2022/07/20 05:32:19;;;;;;;15.07;9.27;;;;;;;23.45;45.76;97610.72;4819147;29;20218;-71
2022/07/20 05:34:46;;;;;;;5.53;3.53;;;;;;;23.26;45.84;97633.63;4818741;29;20209;-69
2022/07/20 05:37:13;;;;;;;6.50;2.70;;;;;;;22.74;47.07;97625.84;4819013;29;20202;-70
2022/07/20 05:39:39;;;;;;;2.70;2.47;;;;;;;22.79;46.75;97626.31;4819094;29;20364;-70
2022/07/20 05:42:07;;;;;;;5.17;2.50;;;;;;;22.67;46.63;97618.47;4818807;29;20209;-70
2022/07/20 05:44:33;;;;;;;3.50;2.53;;;;;;;22.76;46.32;97623.91;4819044;29;20682;-71
2022/07/20 05:47:00;;;;;;;4.10;2.40;;;;;;;23.04;46.07;97625.88;4818640;29;20496;-70
2022/07/20 05:49:27;;;;;;;6.30;2.83;;;;;;;23.65;45.39;97632.78;4818383;29;20227;-74
2022/07/20 05:51:54;;;;;;;9.83;2.80;;;;;;;23.93;43.35;97628.50;4818475;29;20211;-71
2022/07/20 05:54:21;;;;;;;3.83;2.40;;;;;;;24.30;43.26;97636.63;4818451;29;20266;-71
2022/07/20 05:56:48;;;;;;;4.43;2.40;;;;;;;24.27;43.07;97634.25;4802148;29;20203;-70
2022/07/20 05:59:15;;;;;;;5.33;2.60;;;;;;;24.35;43.28;97637.03;4801834;29;20655;-70
2022/07/20 06:01:44;;;;;;;4.90;2.37;;;;;;;24.30;43.17;97633.97;4819197;29;20669;-70
2022/07/20 06:04:12;;;;;;;4.53;2.10;;;;;;;24.65;42.74;97626.25;4817877;29;20637;-71
2022/07/20 06:06:40;;;;;;;8.63;4.43;;;;;;;24.95;41.99;97626.06;4818736;29;20227;-69
2022/07/20 06:09:08;;;;;;;5.00;2.43;;;;;;;24.89;41.54;97622.16;4818088;29;20239;-71
2022/07/20 06:11:47;;;;;;;5.90;2.23;;;;;;;24.84;41.70;97621.78;4818337;29;20651;-69
2022/07/20 06:14:14;;;;;;;4.67;2.80;;;;;;;25.35;41.10;97620.47;4801920;29;20221;-70
2022/07/20 06:16:41;;;;;;;5.57;2.80;;;;;;;25.62;40.28;97613.34;4801496;29;20251;-71
2022/07/20 06:19:08;;;;;;;4.17;2.50;;;;;;;25.99;39.28;97615.06;4818576;29;20933;-70
2022/07/20 06:21:36;;;;;;;8.83;2.80;;;;;;;26.09;39.30;97621.16;4817083;29;20644;-70
2022/07/20 06:24:03;;;;;;;10.70;2.80;;;;;;;26.22;38.78;97609.16;4818276;29;20198;-69
2022/07/20 06:26:30;;;;;;;3.53;2.13;;;;;;;26.24;38.22;97611.66;4817551;29;20205;-69
2022/07/20 06:28:57;;;;;;;4.13;2.47;;;;;;;26.46;38.48;97613.84;4817672;29;20244;-70
2022/07/20 06:31:24;;;;;;;4.87;3.20;;;;;;;26.72;38.31;97606.75;4818380;29;20597;-70
2022/07/20 06:34:13;;;;;;;7.37;3.17;;;;;;;26.87;38.60;97615.81;4817613;29;20734;-69
2022/07/20 06:36:40;;;;;;;5.23;2.87;;;;;;;26.99;38.99;97609.25;4817941;29;20205;-69
2022/07/20 06:39:07;;;;;;;3.67;2.70;;;;;;;27.12;39.10;97617.59;4817809;29;20210;-69
2022/07/20 06:41:34;;;;;;;4.50;2.63;;;;;;;27.27;38.73;97613.34;4817875;29;20218;-70
2022/07/20 06:44:05;;;;;;;6.07;2.70;;;;;;;27.37;38.38;97611.44;4817710;29;20233;-69
2022/07/20 06:46:32;;;;;;;7.43;2.70;;;;;;;27.48;38.30;97605.00;4800659;29;20215;-69
2022/07/20 06:48:59;;;;;;;12.03;3.00;;;;;;;27.50;37.66;97612.81;4817565;29;20551;-69
2022/07/20 06:51:26;;;;;;;7.83;2.50;;;;;;;27.73;37.78;97606.72;4817063;29;20228;-69
2022/07/20 06:53:53;;;;;;;7.07;6.00;;;;;;;27.86;37.86;97608.94;4817531;29;20278;-69
2022/07/20 06:56:20;;;;;;;5.60;2.77;;;;;;;27.84;37.10;97606.41;4817173;29;20686;-70
2022/07/20 06:58:47;;;;;;;5.97;4.57;;;;;;;28.06;36.77;97607.66;4817044;29;20206;-70
2022/07/20 07:01:14;;;;;;;8.23;2.87;;;;;;;28.13;35.71;97611.34;4817499;29;20212;-71
2022/07/20 07:03:41;;;;;;;6.07;3.30;;;;;;;28.18;35.51;97614.31;4817002;29;20256;-71
2022/07/20 07:06:08;;;;;;;6.80;2.23;;;;;;;28.35;34.75;97613.34;4817861;29;20205;-71
2022/07/20 07:08:35;;;;;;;7.60;2.87;;;;;;;28.45;34.20;97614.00;4800293;29;20737;-70
2022/07/20 07:11:02;;;;;;;6.17;2.57;;;;;;;28.38;33.67;97605.00;4817401;29;20224;-70
2022/07/20 07:13:29;;;;;;;6.97;2.57;;;;;;;28.42;33.16;97614.31;4817352;29;20205;-69
2022/07/20 07:15:56;;;;;;;9.90;3.30;;;;;;;28.52;33.23;97609.66;4817231;29;20582;-69
2022/07/20 07:18:23;;;;;;;5.00;2.43;;;;;;;28.60;32.46;97599.03;4817214;29;20261;-69
2022/07/20 07:20:50;;;;;;;6.47;2.43;;;;;;;28.60;32.51;97606.19;4816730;29;20507;-69
2022/07/20 07:23:17;;;;;;;4.03;2.30;;;;;;;28.62;32.18;97604.19;4817446;29;20573;-70
2022/07/20 07:25:44;;;;;;;5.90;2.83;;;;;;;28.37;33.17;97607.84;4816646;29;20545;-69
2022/07/20 07:28:11;;;;;;;7.07;3.33;;;;;;;28.45;33.67;97608.66;4816995;29;20198;-70
2022/07/20 07:30:38;;;;;;;7.47;2.67;;;;;;;28.19;34.02;97603.50;4816672;29;20786;-70
2022/07/20 07:33:05;;;;;;;6.73;2.80;;;;;;;28.51;33.61;97601.81;4818701;29;20198;-69
2022/07/20 07:35:32;;;;;;;5.87;3.00;;;;;;;28.56;33.40;97597.72;4820281;29;20644;-71
2022/07/20 07:37:59;;;;;;;6.17;3.70;;;;;;;28.65;33.85;97598.50;4820146;29;20652;-70
2022/07/20 07:40:26;;;;;;;4.03;2.60;;;;;;;28.65;32.90;97591.34;4820950;29;20214;-70
2022/07/20 07:42:53;;;;;;;5.93;2.67;;;;;;;28.67;32.17;97589.34;4819902;29;20209;-69
2022/07/20 07:45:20;;;;;;;5.20;3.00;;;;;;;28.81;32.37;97593.97;4804030;29;20217;-69
2022/07/20 07:47:47;;;;;;;6.20;3.00;;;;;;;28.87;32.96;97598.63;4819958;29;20202;-69
2022/07/20 07:50:14;;;;;;;5.90;2.90;;;;;;;28.78;32.86;97590.81;4819596;29;20810;-71
2022/07/20 07:52:41;;;;;;;5.20;2.40;;;;;;;28.67;33.39;97589.34;4820050;29;20206;-70
2022/07/20 07:55:22;;;;;;;8.77;3.10;;;;;;;28.83;33.13;97585.81;4819682;29;20217;-70
2022/07/20 07:57:49;;;;;;;7.60;2.97;;;;;;;29.14;33.01;97592.03;4820524;29;20255;-70
2022/07/20 08:00:16;;;;;;;5.50;2.60;;;;;;;29.14;32.75;97588.56;4819341;29;20206;-69
2022/07/20 08:02:43;;;;;;;4.57;2.90;;;;;;;29.11;33.10;97583.56;4819640;29;20763;-70
2022/07/20 08:05:10;;;;;;;4.97;3.27;;;;;;;29.03;32.17;97586.25;4819618;29;20274;-70
2022/07/20 08:07:39;;;;;;;6.40;4.10;;;;;;;29.14;32.77;97577.91;4819974;29;20218;-70
2022/07/20 08:10:08;;;;;;;3.80;2.67;;;;;;;29.04;31.90;97585.28;4819880;29;20217;-70
2022/07/20 08:12:37;;;;;;;7.43;2.90;;;;;;;28.96;31.41;97572.78;4819505;29;20308;-70
2022/07/20 08:15:05;;;;;;;4.63;2.37;;;;;;;29.25;31.14;97578.38;4820074;29;20214;-70
2022/07/20 08:17:32;;;;;;;7.43;4.17;;;;;;;29.43;30.30;97580.81;4819404;29;20242;-70
2022/07/20 08:19:59;;;;;;;7.87;4.07;;;;;;;29.36;30.10;97562.00;4819892;29;20344;-70
2022/07/20 08:22:28;;;;;;;5.63;2.80;;;;;;;29.44;30.32;97582.47;4803329;29;20267;-70
2022/07/20 08:24:55;;;;;;;4.83;2.80;;;;;;;29.37;30.44;97568.97;4819966;29;20287;-70
2022/07/20 08:27:22;;;;;;;8.97;2.87;;;;;;;29.50;30.28;97566.56;4819973;29;20237;-69
2022/07/20 08:29:49;;;;;;;4.60;2.50;;;;;;;29.34;30.85;97549.81;4820554;29;20241;-70
2022/07/20 08:32:16;;;;;;;5.00;2.33;;;;;;;29.21;30.44;97560.19;4821082;29;20619;-70
2022/07/20 08:34:43;;;;;;;4.80;2.00;;;;;;;29.44;30.18;97558.44;4819840;29;20222;-69
2022/07/20 08:37:11;;;;;;;4.83;2.20;;;;;;;29.42;30.04;97563.94;4820544;29;20278;-69
2022/07/20 08:39:38;;;;;;;5.73;2.17;;;;;;;29.32;29.93;97568.69;4819758;29;20202;-70
2022/07/20 08:42:11;;;;;;;6.10;2.87;;;;;;;29.56;29.56;97565.88;4819001;29;20202;-70
2022/07/20 08:44:42;;;;;;;4.47;2.20;;;;;;;29.58;28.62;97552.34;4817931;29;20218;-69
2022/07/20 08:47:14;;;;;;;2.37;1.40;;;;;;;29.15;28.82;97566.22;4819052;29;20200;-69
2022/07/20 08:49:50;;;;;;;4.07;2.40;;;;;;;29.22;29.07;97569.88;4819491;29;20234;-69
2022/07/20 08:52:17;;;;;;;4.80;2.40;;;;;;;29.40;29.39;97555.28;4819366;29;20217;-69
2022/07/20 08:54:47;;;;;;;5.23;1.70;;;;;;;28.87;28.86;97576.47;4819150;29;20202;-71
2022/07/20 08:57:17;;;;;;;2.30;1.50;;;;;;;28.94;29.03;97558.78;4818835;29;20202;-69
2022/07/20 08:59:44;;;;;;;3.10;1.63;;;;;;;28.92;29.10;97572.28;4818811;29;20359;-69
2022/07/20 09:02:12;;;;;;;1.80;1.33;;;;;;;28.62;30.25;97551.72;4819155;29;20202;-70
2022/07/20 09:04:50;;;;;;;3.13;1.53;;;;;;;28.35;29.96;97565.38;4802515;29;20218;-69
2022/07/20 09:07:17;;;;;;;2.50;1.50;;;;;;;28.30;30.59;97556.19;4819066;29;20228;-69
2022/07/20 09:09:44;;;;;;;5.20;1.50;;;;;;;28.36;30.25;97564.34;4818761;29;20237;-72
2022/07/20 09:12:17;;;;;;;5.63;1.47;;;;;;;28.62;29.75;97546.38;4818696;29;20678;-71
2022/07/20 09:14:48;;;;;;;2.63;1.83;;;;;;;28.77;29.40;97546.50;4819112;29;20202;-70
2022/07/20 09:17:21;;;;;;;2.90;1.60;;;;;;;28.83;29.44;97546.63;4802027;29;20324;-69
2022/07/20 09:20:08;;;;;;;3.67;1.60;;;;;;;28.93;29.94;97543.78;4818768;29;20218;-70
2022/07/20 09:22:37;;;;;;;5.77;2.47;;;;;;;28.81;30.35;97543.31;4818357;29;20208;-70
2022/07/20 09:25:06;;;;;;;2.30;1.60;;;;;;;28.87;29.67;97539.94;4818594;29;20206;-71
2022/07/20 09:27:34;;;;;;;2.07;1.53;;;;;;;28.62;29.47;97546.38;4802907;29;20246;-71
2022/07/20 09:30:09;;;;;;;2.27;1.50;;;;;;;28.42;29.53;97541.56;4818132;29;20242;-71
2022/07/20 09:33:00;;;;;;;3.50;2.03;;;;;;;28.65;30.08;97543.34;4818731;29;20712;-69
2022/07/20 09:35:35;;;;;;;3.20;1.87;;;;;;;28.54;30.29;97537.53;4818513;29;20291;-70
2022/07/20 09:38:05;;;;;;;2.70;1.43;;;;;;;28.52;29.89;97531.53;4818514;29;20209;-69
2022/07/20 09:40:41;;;;;;;5.00;1.80;;;;;;;28.76;29.37;97540.34;4818538;29;20206;-71
2022/07/20 09:43:25;;;;;;;3.23;1.60;;;;;;;28.78;30.31;97526.81;4818021;29;20221;-70
2022/07/20 09:45:54;;;;;;;2.67;1.37;;;;;;;28.83;29.35;97533.31;4817276;29;20206;-70
2022/07/20 09:48:24;;;;;;;4.40;1.63;;;;;;;28.80;29.23;97531.00;4818384;29;20565;-71
2022/07/20 09:50:51;;;;;;;5.00;1.90;;;;;;;28.83;29.25;97519.16;4818362;29;20687;-69
2022/07/20 09:53:18;;;;;;;1.80;1.50;;;;;;;29.22;28.66;97513.84;4818411;29;20263;-70
2022/07/20 09:55:48;;;;;;;1.60;1.33;;;;;;;28.69;28.88;97507.34;4818271;29;20206;-69
2022/07/20 09:58:19;;;;;;;5.53;2.07;;;;;;;29.01;28.59;97516.25;4818748;29;20209;-71
2022/07/20 10:00:46;;;;;;;4.23;1.80;;;;;;;29.00;28.62;97515.41;4818190;29;20201;-71
2022/07/20 10:03:14;;;;;;;4.43;2.10;;;;;;;29.23;28.63;97520.84;4818120;29;20207;-71
2022/07/20 10:05:43;;;;;;;9.93;5.23;;;;;;;29.13;29.01;97520.19;4817975;29;20263;-70
2022/07/20 10:08:10;;;;;;;5.47;3.13;;;;;;;29.23;28.99;97504.81;4817942;29;20202;-71
2022/07/20 10:10:37;;;;;;;3.80;1.50;;;;;;;29.35;28.79;97504.25;4818133;29;20233;-70
2022/07/20 10:13:04;;;;;;;3.37;1.60;;;;;;;29.44;28.42;97508.56;4817888;29;20202;-71
2022/07/20 10:15:55;;;;;;;4.33;1.87;;;;;;;29.53;28.55;97526.16;4818425;29;20296;-70
2022/07/20 10:18:23;;;;;;;10.47;5.73;;;;;;;29.26;28.48;97512.50;4817884;29;20210;-71
2022/07/20 10:20:50;;;;;;;2.63;1.47;;;;;;;29.20;28.53;97505.19;4817879;29;20194;-70
2022/07/20 10:23:27;;;;;;;2.87;1.70;;;;;;;29.66;28.03;97504.22;4817758;29;20233;-70
2022/07/20 10:25:56;;;;;;;2.00;1.43;;;;;;;29.49;28.61;97494.69;4817579;29;20263;-70
2022/07/20 10:28:37;;;;;;;7.17;4.10;;;;;;;29.52;28.83;97491.66;4817978;29;20242;-70
2022/07/20 10:31:08;;;;;;;9.40;4.63;;;;;;;29.24;29.22;97469.97;4817591;29;20725;-71
2022/07/20 10:33:38;;;;;;;4.00;2.20;;;;;;;29.59;29.10;97480.06;4817660;29;20194;-71
2022/07/20 10:39:48;;;;;;;2.10;1.63;;;;;;;29.16;29.12;97474.53;4800886;29;20236;-71
2022/07/20 10:42:37;;;;;;;2.33;1.50;;;;;;;29.38;29.32;97471.06;4817883;29;20198;-69
2022/07/20 10:45:19;;;;;;;2.53;1.63;;;;;;;29.44;29.07;97471.19;4817721;29;20270;-70
2022/07/20 10:47:49;;;;;;;4.17;1.80;;;;;;;29.16;29.31;97434.50;4817086;29;20202;-71
2022/07/20 10:50:27;;;;;;;2.10;1.93;;;;;;;29.39;28.86;97454.84;4818080;29;20249;-71
2022/07/20 10:52:57;;;;;;;9.57;5.03;;;;;;;29.55;28.98;97461.94;4818056;29;20326;-71
2022/07/20 10:55:33;;;;;;;2.60;1.90;;;;;;;29.75;28.12;97465.81;4816805;29;20206;-70
2022/07/20 10:58:31;;;;;;;2.10;1.50;;;;;;;29.63;28.43;97468.06;4817373;29;20261;-70
2022/07/20 11:01:09;;;;;;;1.90;1.53;;;;;;;29.79;28.64;97459.09;4802098;29;20585;-70
2022/07/20 11:03:42;;;;;;;3.03;1.70;;;;;;;29.68;27.96;97463.00;4817638;29;20202;-69
2022/07/20 11:06:21;;;;;;;2.27;1.57;;;;;;;29.32;28.52;97456.59;4800906;29;20217;-69
2022/07/20 11:08:51;;;;;;;1.90;1.43;;;;;;;29.57;29.00;97451.91;4822800;29;20958;-70
2022/07/20 11:11:27;;;;;;;4.97;1.57;;;;;;;30.06;28.28;97439.84;4807106;29;20202;-71
2022/07/20 11:13:54;;;;;;;3.23;1.60;;;;;;;29.89;27.49;97440.16;4823350;29;20614;-70
2022/07/20 11:16:26;;;;;;;1.93;1.57;;;;;;;29.85;27.83;97433.50;4823256;29;21113;-71
2022/07/20 11:18:55;;;;;;;3.77;2.23;;;;;;;29.61;28.55;97442.53;4823336;29;20629;-70
2022/07/20 11:21:29;;;;;;;3.90;1.50;;;;;;;29.64;27.79;97444.84;4823584;29;20209;-69
2022/07/20 11:24:03;;;;;;;2.40;1.50;;;;;;;29.47;28.20;97438.78;4823671;29;20213;-68
2022/07/20 11:26:30;;;;;;;1.97;1.30;;;;;;;29.56;28.32;97435.06;4822932;29;20209;-70
2022/07/20 11:28:58;;;;;;;3.27;2.07;;;;;;;29.15;29.26;97430.16;4823367;29;20207;-69
2022/07/20 11:31:27;;;;;;;1.70;1.60;;;;;;;29.47;28.43;97435.31;4822931;29;20256;-70
2022/07/20 11:33:57;;;;;;;2.93;1.57;;;;;;;29.63;28.01;97421.81;4823073;29;20258;-69
2022/07/20 11:36:28;;;;;;;3.07;1.37;;;;;;;29.99;28.37;97432.69;4823276;29;20293;-70
2022/07/20 11:39:01;;;;;;;5.70;1.90;;;;;;;30.11;27.96;97426.75;4822863;29;20205;-69